Nearby METAR Reports

EGBB - Birmingham Airport
Distance: SSW 46mi, 74km
Updated: 19/04/2018 21:50
Clear
Clear
 Wind from SW
Wind: SW 3 mph , 6 km/h
Temperature: 19°C
Dew Point: 11°C
Humidity: 60%
Barometer: 1023 hPa
Summary: Clear
Visibility: greater than 7 miles , 10 km
2018/04/19 20:50 EGBB 192050Z 23003KT CAVOK 19/11 Q1023
EGBE - Coventry Airport
Distance: S 49mi, 79km
Updated: 18/07/2017 14:50
NOT Current
Clear
Clear
 Wind from E
Wind: E 16 mph , 26 km/h
Temperature: 27°C
Heat Index: 27°C
Dew Point: 14°C
Humidity: 45%
Barometer: 1015 hPa
Summary: Clear
Visibility: greater than 7 miles , 10 km
2017/07/18 13:50 EGBE 181350Z 10014KT 060V120 CAVOK 27/14 Q1015
EGCC - Manchester International
Distance: WNW 45mi, 72km
Updated: 19/04/2018 21:50
Clear
Clear
 Wind from WNW
Wind: WNW 7 mph , 11 km/h
Temperature: 13°C
Dew Point: 11°C
Humidity: 88%
Barometer: 1024 hPa
Clouds: Clear
Visibility: 6 miles , 10 km
2018/04/19 20:50 EGCC 192050Z AUTO 30006KT 9999 NCD 13/11 Q1024 NOSIG
 
EGCN - Doncaster Sheffield
Distance: NNE 31mi, 50km
Updated: 19/04/2018 21:50
Clear
Clear
 Wind from NW
Wind: NW 9 mph , 15 km/h
Temperature: 19°C
Dew Point: 12°C
Humidity: 64%
Barometer: 1023 hPa
Summary: Clear
Visibility: greater than 7 miles , 10 km
2018/04/19 20:50 EGCN 192050Z 32008KT 280V350 CAVOK 19/12 Q1023
EGNX - East Midlands
Distance: S 18mi, 28km
Updated: 19/04/2018 21:50
Clear
Clear
 Wind from W
Wind: W 8 mph , 13 km/h
Temperature: 17°C
Dew Point: 11°C
Humidity: 68%
Barometer: 1023 hPa
Summary: Clear
Visibility: greater than 7 miles , 10 km
2018/04/19 20:50 EGNX 192050Z 28007KT CAVOK 17/11 Q1023
EGXC - Coningsby RAF
Distance: E 47mi, 75km
Updated: 19/04/2018 21:50
Clear
Clear
 Wind from E
Wind: E 6 mph , 9 km/h
Temperature: 15°C
Dew Point: 10°C
Humidity: 72%
Barometer: 1022 hPa
Summary: Clear
Visibility: greater than 7 miles , 10 km
2018/04/19 20:50 EGXC 192050Z 09005KT CAVOK 15/10 Q1022 BLU
 
EGXP - Scampton RAF
Distance: ENE 35mi, 56km
Updated: 19/04/2018 20:50
Clear
Clear
 Wind from SE
Wind: SE 6 mph , 9 km/h
Temperature: 20°C
Dew Point: 13°C
Humidity: 64%
Barometer: 1022 hPa
Clouds: Clear
Visibility: 6 miles , 10 km
2018/04/19 19:50 EGXP 191950Z AUTO 13005KT 9999 // NCD 20/13 Q1022
EGXS - Swinderby RAF
Distance: ENE 26mi, 42km
Updated: 19/04/2018 20:50
Clear
Clear
 Wind from SSE
Wind: SSE 3 mph , 6 km/h
Temperature: 12°C
Dew Point: 8°C
Humidity: 77%
Barometer: 1022 hPa
Clouds: Clear
Visibility: 6 miles , 10 km
2018/04/19 19:50 EGXS 191950Z AUTO 16003KT 9999 // NCD 12/08 Q1022
EGXT - Wittering RAF
Distance: SE 47mi, 75km
Updated: 19/04/2018 20:50
Clear
Clear
 Wind from NW
Wind: NW 5 mph , 7 km/h
Temperature: 20°C
Dew Point: 13°C
Humidity: 64%
Barometer: 1022 hPa
Clouds: Clear
Visibility: 6 miles , 10 km
2018/04/19 19:50 EGXT 191950Z AUTO 31004KT 9999 NCD 20/13 Q1022
 
EGXW - Waddington RAF
Distance: ENE 33mi, 53km
Updated: 19/04/2018 21:50
Clear
Clear
 Wind from S
Wind: S 6 mph , 9 km/h
Temperature: 18°C
Dew Point: 12°C
Humidity: 68%
Barometer: 1022 hPa
Summary: Clear
Visibility: greater than 7 miles , 10 km
2018/04/19 20:50 EGXW 192050Z 17005KT CAVOK 18/12 Q1022 BLU
EGYD - Cranwell RAF
Distance: E 33mi, 53km
Updated: 19/04/2018 20:50
Clear
Clear
 Wind from ESE
Wind: ESE 6 mph , 9 km/h
Temperature: 17°C
Dew Point: 12°C
Humidity: 73%
Barometer: 1022 hPa
Clouds: Clear
Visibility: 6 miles , 10 km
2018/04/19 19:50 EGYD 191950Z AUTO 12005KT 9999 // NCD 17/12 Q1022
EGYE - Barkston Heath RAF
Distance: ESE 31mi, 50km
Updated: 19/04/2018 16:50
NOT Current
Clear
Clear
 Wind from SW
Wind: SW 9 mph , 15 km/h
Barometer: 1022 hPa
Summary: Clear
Visibility: greater than 7 miles , 10 km
2018/04/19 15:50 EGYE 191550Z 22008KT CAVOK ///// Q1022 BLU